createdAt,value
2018-10-07T00:00:13.947Z,97562.56
2018-10-07T00:02:44.257Z,97559.02
2018-10-07T00:05:14.550Z,97561.09
2018-10-07T00:07:44.893Z,97560.13
2018-10-07T00:10:15.091Z,97553.13
2018-10-07T00:12:45.467Z,97552.78
2018-10-07T00:15:15.723Z,97552.78
2018-10-07T00:17:46.100Z,97543.05
2018-10-07T00:20:16.404Z,97541.63
2018-10-07T00:22:46.737Z,97544.50
2018-10-07T00:25:17.021Z,97540.96
2018-10-07T00:27:47.372Z,97544.80
2018-10-07T00:30:17.633Z,97543.67
2018-10-07T00:32:47.917Z,97547.97
2018-10-07T00:35:18.293Z,97545.06
2018-10-07T00:37:48.707Z,97541.69
2018-10-07T00:40:19.170Z,97543.38
2018-10-07T00:42:49.581Z,97534.89
2018-10-07T00:45:19.972Z,97538.44
2018-10-07T00:47:50.233Z,97533.76
2018-10-07T00:50:20.640Z,97529.28
2018-10-07T00:52:50.927Z,97538.98
2018-10-07T00:55:21.613Z,97530.59
2018-10-07T00:57:51.843Z,97533.38
2018-10-07T01:00:22.089Z,97536.92
2018-10-07T01:02:52.368Z,97539.36
2018-10-07T01:05:22.740Z,97535.44
2018-10-07T01:07:53.031Z,97539.91
2018-10-07T01:10:23.320Z,97544.73
2018-10-07T01:12:53.676Z,97539.30
2018-10-07T01:15:24.041Z,97532.77
2018-10-07T01:17:54.277Z,97535.20
2018-10-07T01:20:24.677Z,97538.44
2018-10-07T01:22:54.968Z,97537.20
2018-10-07T01:25:25.308Z,97544.86
2018-10-07T01:27:55.675Z,97544.18
2018-10-07T01:30:26.050Z,97543.83
2018-10-07T01:32:56.503Z,97551.07
2018-10-07T01:35:26.748Z,97555.19
2018-10-07T01:37:57.085Z,97551.12
2018-10-07T01:40:27.528Z,97552.36
2018-10-07T01:42:57.801Z,97552.58
2018-10-07T01:45:28.003Z,97548.00
2018-10-07T01:47:58.323Z,97549.78
2018-10-07T01:50:28.588Z,97552.31
2018-10-07T01:52:59.016Z,97552.15
2018-10-07T01:55:29.549Z,97546.39
2018-10-07T01:57:59.815Z,97549.48
2018-10-07T02:00:30.074Z,97546.67
2018-10-07T02:03:00.368Z,97545.88
2018-10-07T02:05:30.704Z,97547.45
2018-10-07T02:08:01.149Z,97541.76
2018-10-07T02:10:31.471Z,97549.89
2018-10-07T02:13:01.878Z,97544.00
2018-10-07T02:15:32.180Z,97549.06
2018-10-07T02:18:02.654Z,97555.59
2018-10-07T02:20:32.940Z,97559.05
2018-10-07T02:23:03.218Z,97561.58
2018-10-07T02:25:33.536Z,97564.57
2018-10-07T02:28:03.799Z,97559.80
2018-10-07T02:30:34.043Z,97564.36
2018-10-07T02:33:04.507Z,97559.88
2018-10-07T02:35:34.758Z,97563.33
2018-10-07T02:38:05.152Z,97565.27
2018-10-07T02:40:35.481Z,97564.24
2018-10-07T02:43:05.816Z,97564.48
2018-10-07T02:45:36.123Z,97567.65
2018-10-07T02:48:06.619Z,97572.41
2018-10-07T02:50:37.027Z,97575.78
2018-10-07T02:53:07.386Z,97580.09
2018-10-07T02:55:37.771Z,97583.16
2018-10-07T02:58:08.423Z,97587.08
2018-10-07T03:00:38.797Z,97583.54
2018-10-07T03:03:09.067Z,97584.68
2018-10-07T03:05:39.363Z,97588.02
2018-10-07T03:08:09.661Z,97582.34
2018-10-07T03:10:40.003Z,97588.02
2018-10-07T03:13:10.388Z,97587.94
2018-10-07T03:15:40.703Z,97588.95
2018-10-07T03:18:10.928Z,97589.61
2018-10-07T03:20:41.146Z,97580.53
2018-10-07T03:23:14.637Z,97584.34
2018-10-07T03:25:45.231Z,97582.17
2018-10-07T03:28:15.493Z,97592.02
2018-10-07T03:30:45.863Z,97596.18
2018-10-07T03:33:16.233Z,97596.31
2018-10-07T03:35:46.537Z,97597.73
2018-10-07T03:38:16.847Z,97602.42
2018-10-07T03:40:47.099Z,97604.45
2018-10-07T03:43:17.347Z,97597.20
2018-10-07T03:45:47.607Z,97599.84
2018-10-07T03:48:17.882Z,97605.33
2018-10-07T03:50:48.255Z,97609.73
2018-10-07T03:53:18.887Z,97615.41
2018-10-07T03:55:49.391Z,97616.40
2018-10-07T03:58:19.717Z,97616.09
2018-10-07T04:00:50.055Z,97623.17
2018-10-07T04:03:20.434Z,97630.44
2018-10-07T04:05:50.731Z,97634.59
2018-10-07T04:08:21.045Z,97639.16
2018-10-07T04:10:51.383Z,97633.33
2018-10-07T04:13:21.715Z,97630.19
2018-10-07T04:15:52.073Z,97638.22
2018-10-07T04:18:22.325Z,97636.91
2018-10-07T04:20:52.660Z,97641.13
2018-10-07T04:23:22.990Z,97641.72
2018-10-07T04:25:53.303Z,97648.94
2018-10-07T04:28:23.657Z,97655.77
2018-10-07T04:30:53.979Z,97651.28
2018-10-07T04:33:24.241Z,97654.20
2018-10-07T04:35:54.494Z,97644.69
2018-10-07T04:38:24.779Z,97650.29
2018-10-07T04:40:55.034Z,97645.76
2018-10-07T04:43:25.343Z,97659.09
2018-10-07T04:45:55.620Z,97655.48
2018-10-07T04:48:25.917Z,97660.58
2018-10-07T04:50:56.247Z,97668.22
2018-10-07T04:53:26.732Z,97662.00
2018-10-07T04:55:57.016Z,97663.97
2018-10-07T04:58:27.330Z,97672.10
2018-10-07T05:00:57.696Z,97671.27
2018-10-07T05:03:28.156Z,97672.88
2018-10-07T05:05:58.574Z,97674.48
2018-10-07T05:08:29.091Z,97677.37
2018-10-07T05:11:02.225Z,97671.98
2018-10-07T05:13:41.613Z,97676.95
2018-10-07T05:16:13.410Z,97678.94
2018-10-07T05:18:44.725Z,97678.56
2018-10-07T05:21:15.179Z,97681.09
2018-10-07T05:23:45.662Z,97678.75
2018-10-07T05:26:16.072Z,97682.52
2018-10-07T05:28:46.756Z,97686.43
2018-10-07T05:31:17.196Z,97682.52
2018-10-07T05:33:47.663Z,97677.52
2018-10-07T05:36:18.336Z,97680.39
2018-10-07T05:38:48.727Z,97681.55
2018-10-07T05:41:19.072Z,97680.39
2018-10-07T05:43:49.380Z,97687.85
2018-10-07T05:46:19.717Z,97690.30
2018-10-07T05:48:49.986Z,97687.73
2018-10-07T05:51:23.388Z,97692.25
2018-10-07T05:53:53.608Z,97700.74
2018-10-07T05:56:23.950Z,97701.39
2018-10-07T05:58:56.540Z,97707.50
2018-10-07T06:01:30.069Z,97718.09
2018-10-07T06:04:39.036Z,97717.88
2018-10-07T06:07:09.568Z,97722.31
2018-10-07T06:09:39.855Z,97728.13
2018-10-07T06:12:10.248Z,97730.70
2018-10-07T06:14:55.038Z,97735.27
2018-10-07T06:17:25.359Z,97736.42
2018-10-07T06:19:55.703Z,97729.11
2018-10-07T06:22:26.373Z,97734.34
2018-10-07T06:24:57.167Z,97735.74
2018-10-07T06:27:27.563Z,97740.12
2018-10-07T06:29:58.006Z,97747.75
2018-10-07T06:32:28.236Z,97747.36
2018-10-07T06:34:58.711Z,97747.60
2018-10-07T06:37:29.079Z,97756.11
2018-10-07T06:39:59.475Z,97768.42
2018-10-07T06:42:29.824Z,97764.88
2018-10-07T06:45:00.351Z,97770.66
2018-10-07T06:47:30.703Z,97767.42
2018-10-07T06:50:01.222Z,97767.92
2018-10-07T06:52:31.649Z,97770.46
2018-10-07T06:55:02.367Z,97772.34
2018-10-07T06:57:32.737Z,97772.75
2018-10-07T07:00:03.299Z,97776.19
2018-10-07T07:02:33.699Z,97775.82
2018-10-07T07:05:04.102Z,97781.05
2018-10-07T07:07:36.093Z,97782.64
2018-10-07T07:10:06.641Z,97786.70
2018-10-07T07:12:36.935Z,97779.62
2018-10-07T07:15:08.179Z,97788.70
2018-10-07T07:17:38.878Z,97791.67
2018-10-07T07:20:09.156Z,97793.50
2018-10-07T07:22:39.933Z,97795.33
2018-10-07T07:25:10.166Z,97799.75
2018-10-07T07:27:41.107Z,97797.53
2018-10-07T07:30:11.392Z,97800.41
2018-10-07T07:32:41.621Z,97803.66
2018-10-07T07:35:11.917Z,97805.22
2018-10-07T07:37:42.287Z,97807.63
2018-10-07T07:40:12.762Z,97803.22
2018-10-07T07:42:43.045Z,97805.26
2018-10-07T07:45:13.390Z,97807.44
2018-10-07T07:47:44.090Z,97813.28
2018-10-07T07:50:14.344Z,97816.65
2018-10-07T07:52:44.625Z,97828.30
2018-10-07T07:55:14.857Z,97825.79
2018-10-07T07:57:45.443Z,97832.39
2018-10-07T08:00:15.677Z,97842.17
2018-10-07T08:02:46.095Z,97845.08
2018-10-07T08:05:16.369Z,97851.42
2018-10-07T08:07:46.680Z,97854.28
2018-10-07T08:10:16.869Z,97859.30
2018-10-07T08:12:47.139Z,97858.59
2018-10-07T08:15:17.389Z,97861.41
2018-10-07T08:17:47.661Z,97859.75
2018-10-07T08:20:18.021Z,97866.33
2018-10-07T08:22:48.260Z,97864.44
2018-10-07T08:25:18.550Z,97863.38
2018-10-07T08:27:48.892Z,97864.66
2018-10-07T08:30:19.145Z,97865.39
2018-10-07T08:32:49.504Z,97863.38
2018-10-07T08:35:19.945Z,97862.08
2018-10-07T08:37:50.429Z,97865.38
2018-10-07T08:40:20.725Z,97873.04
2018-10-07T08:42:51.288Z,97867.72
2018-10-07T08:45:21.558Z,97877.16
2018-10-07T08:47:51.885Z,97873.09
2018-10-07T08:50:22.340Z,97873.64
2018-10-07T08:52:52.939Z,97870.41
2018-10-07T08:55:31.432Z,97884.06
2018-10-07T08:58:01.756Z,97887.55
2018-10-07T09:00:32.146Z,97888.22
2018-10-07T09:03:02.407Z,97890.86
2018-10-07T09:05:32.663Z,97898.97
2018-10-07T09:08:03.170Z,97896.95
2018-10-07T09:10:33.442Z,97899.16
2018-10-07T09:13:03.786Z,97897.80
2018-10-07T09:15:33.968Z,97905.86
2018-10-07T09:18:04.311Z,97907.97
2018-10-07T09:20:34.714Z,97903.24
2018-10-07T09:23:05.116Z,97898.60
2018-10-07T09:25:35.346Z,97892.03
2018-10-07T09:28:05.830Z,97889.46
2018-10-07T09:31:17.720Z,97900.13
2018-10-07T09:33:53.670Z,97901.21
2018-10-07T09:36:24.068Z,97906.57
2018-10-07T09:38:54.355Z,97907.45
2018-10-07T09:41:24.715Z,97906.50
2018-10-07T09:43:55.032Z,97908.78
2018-10-07T09:46:25.517Z,97906.02
2018-10-07T09:48:55.918Z,97913.97
2018-10-07T09:51:26.310Z,97912.55
2018-10-07T09:53:56.684Z,97910.81
2018-10-07T09:56:27.067Z,97906.50
2018-10-07T09:58:57.490Z,97905.63
2018-10-07T10:01:28.028Z,97902.25
2018-10-07T10:03:58.415Z,97900.38
2018-10-07T10:06:33.281Z,97896.27
2018-10-07T10:09:04.558Z,97900.53
2018-10-07T10:11:34.910Z,97901.14
2018-10-07T10:14:05.297Z,97894.81
2018-10-07T10:16:50.703Z,97896.33
2018-10-07T10:19:39.166Z,97899.45
2018-10-07T10:22:24.770Z,97893.12
2018-10-07T10:25:09.045Z,97895.40
2018-10-07T10:27:45.168Z,97896.61
2018-10-07T10:30:29.125Z,97891.50
2018-10-07T10:33:02.305Z,97882.80
2018-10-07T10:35:37.565Z,97879.08
2018-10-07T10:38:21.277Z,97881.00
2018-10-07T10:40:57.231Z,97878.01
2018-10-07T10:43:49.718Z,97878.00
2018-10-07T10:46:28.261Z,97877.80
2018-10-07T10:49:20.173Z,97877.00
2018-10-07T10:51:56.963Z,97870.09
2018-10-07T10:54:36.334Z,97865.02
2018-10-07T10:57:18.102Z,97868.27
2018-10-07T11:00:06.135Z,97872.55
2018-10-07T11:03:47.157Z,97876.31
2018-10-07T11:06:29.579Z,97880.77
2018-10-07T11:09:06.138Z,97881.36
2018-10-07T11:11:49.236Z,97886.77
2018-10-07T11:16:28.898Z,97888.02
2018-10-07T11:19:05.586Z,97890.05
2018-10-07T11:22:06.671Z,97883.45
2018-10-07T11:24:45.688Z,97877.73
2018-10-07T11:27:31.204Z,97877.62
2018-10-07T11:30:12.626Z,97875.45
2018-10-07T11:34:57.566Z,97883.16
2018-10-07T11:38:09.192Z,97883.23
2018-10-07T11:40:59.504Z,97891.78
2018-10-07T11:43:41.284Z,97878.52
2018-10-07T11:48:26.137Z,97878.43
2018-10-07T11:51:08.531Z,97880.97
2018-10-07T11:53:45.728Z,97885.88
2018-10-07T11:56:16.111Z,97886.45
2018-10-07T11:58:46.637Z,97881.55
2018-10-07T12:01:16.995Z,97882.51
2018-10-07T12:03:47.357Z,97888.98
2018-10-07T12:06:17.661Z,97885.64
2018-10-07T12:08:48.061Z,97880.97
2018-10-07T12:11:18.647Z,97882.89
2018-10-07T12:13:48.969Z,97883.45
2018-10-07T12:16:19.356Z,97888.08
2018-10-07T12:18:50.033Z,97877.94
2018-10-07T12:21:20.402Z,97879.27
2018-10-07T12:23:50.915Z,97888.77
2018-10-07T12:26:21.304Z,97885.66
2018-10-07T12:28:51.685Z,97889.81
2018-10-07T12:31:22.026Z,97893.08
2018-10-07T12:33:52.397Z,97884.88
2018-10-07T12:36:22.691Z,97884.42
2018-10-07T12:38:53.093Z,97880.53
2018-10-07T12:41:23.436Z,97889.46
2018-10-07T12:43:53.815Z,97884.14
2018-10-07T12:46:24.149Z,97885.20
2018-10-07T12:48:54.441Z,97887.74
2018-10-07T12:51:24.862Z,97885.28
2018-10-07T12:53:55.288Z,97883.13
2018-10-07T12:56:25.923Z,97887.08
2018-10-07T12:58:56.743Z,97892.67
2018-10-07T13:01:27.147Z,97889.44
2018-10-07T13:03:57.604Z,97894.15
2018-10-07T13:06:27.981Z,97894.17
2018-10-07T13:08:58.341Z,97895.67
2018-10-07T13:11:28.702Z,97903.44
2018-10-07T13:13:59.119Z,97896.77
2018-10-07T13:16:29.538Z,97898.41
2018-10-07T13:18:59.918Z,97889.78
2018-10-07T13:21:30.507Z,97892.09
2018-10-07T13:24:01.163Z,97895.63
2018-10-07T13:26:32.325Z,97896.44
2018-10-07T13:29:03.061Z,97901.31
2018-10-07T13:31:33.479Z,97893.83
2018-10-07T13:34:04.682Z,97893.55
2018-10-07T13:36:35.017Z,97900.17
2018-10-07T13:39:08.514Z,97889.78
2018-10-07T13:41:39.615Z,97891.78
2018-10-07T13:44:10.063Z,97888.50
2018-10-07T13:46:40.495Z,97895.20
2018-10-07T13:49:10.853Z,97894.52
2018-10-07T13:51:41.185Z,97895.19
2018-10-07T13:54:11.869Z,97893.71
2018-10-07T13:56:42.259Z,97900.13
2018-10-07T13:59:12.645Z,97897.83
2018-10-07T14:01:43.497Z,97891.89
2018-10-07T14:04:13.881Z,97898.18
2018-10-07T14:06:44.426Z,97902.44
2018-10-07T14:09:14.897Z,97903.34
2018-10-07T14:11:45.791Z,97909.83
2018-10-07T14:14:16.197Z,97909.95
2018-10-07T14:16:46.685Z,97912.98
2018-10-07T14:19:17.075Z,97910.92
2018-10-07T14:21:47.901Z,97910.39
2018-10-07T14:24:18.565Z,97915.76
2018-10-07T14:26:48.951Z,97921.63
2018-10-07T14:29:19.307Z,97923.48
2018-10-07T14:31:49.953Z,97920.58
2018-10-07T14:34:20.347Z,97919.63
2018-10-07T14:36:50.913Z,97916.36
2018-10-07T14:39:21.688Z,97921.92
2018-10-07T14:41:52.237Z,97926.69
2018-10-07T14:44:22.563Z,97925.16
2018-10-07T14:46:52.962Z,97926.22
2018-10-07T14:49:23.279Z,97929.00
2018-10-07T14:51:53.763Z,97928.13
2018-10-07T14:54:24.081Z,97941.38
2018-10-07T14:56:54.403Z,97944.20
2018-10-07T14:59:24.791Z,97951.34
2018-10-07T15:01:55.071Z,97951.97
2018-10-07T15:04:25.437Z,97949.56
2018-10-07T15:06:55.821Z,97956.84
2018-10-07T15:09:26.196Z,97955.52
2018-10-07T15:11:56.448Z,97954.42
2018-10-07T15:14:26.845Z,97958.37
2018-10-07T15:16:57.297Z,97957.18
2018-10-07T15:19:28.032Z,97953.59
2018-10-07T15:21:58.825Z,97959.55
2018-10-07T15:24:29.183Z,97962.48
2018-10-07T15:26:59.629Z,97961.47
2018-10-07T15:29:31.581Z,97965.73
2018-10-07T15:32:01.967Z,97969.81
2018-10-07T15:34:32.937Z,97976.56
2018-10-07T15:37:08.259Z,97973.21
2018-10-07T15:39:38.736Z,97981.47
2018-10-07T15:42:08.995Z,97977.72
2018-10-07T15:44:39.314Z,97978.95
2018-10-07T15:47:09.670Z,97987.94
2018-10-07T15:49:39.992Z,97992.84
2018-10-07T15:52:10.451Z,97993.25
2018-10-07T15:54:41.151Z,98004.89
2018-10-07T15:57:11.540Z,98010.94
2018-10-07T15:59:41.779Z,98019.18
2018-10-07T16:02:11.978Z,98020.95
2018-10-07T16:04:42.198Z,98015.51
2018-10-07T16:07:12.486Z,98017.13
2018-10-07T16:09:42.766Z,98022.06
2018-10-07T16:12:13.031Z,98029.56
2018-10-07T16:14:43.269Z,98029.41
2018-10-07T16:17:13.605Z,98037.95
2018-10-07T16:19:44.031Z,98045.58
2018-10-07T16:22:14.400Z,98046.05
2018-10-07T16:24:44.791Z,98055.02
2018-10-07T16:27:15.159Z,98060.41
2018-10-07T16:29:45.740Z,98070.67
2018-10-07T16:32:16.099Z,98063.65
2018-10-07T16:34:46.426Z,98070.56
2018-10-07T16:37:16.705Z,98083.70
2018-10-07T16:39:47.108Z,98088.91
2018-10-07T16:42:17.448Z,98100.46
2018-10-07T16:44:47.803Z,98105.30
2018-10-07T16:47:20.915Z,98122.36
2018-10-07T16:49:51.386Z,98127.27
2018-10-07T16:52:22.050Z,98136.73
2018-10-07T16:54:52.414Z,98133.59
2018-10-07T16:57:22.949Z,98145.77
2018-10-07T16:59:53.306Z,98152.35
2018-10-07T17:02:23.720Z,98165.34
2018-10-07T17:04:54.299Z,98167.34
2018-10-07T17:07:24.654Z,98170.67
2018-10-07T17:09:55.060Z,98177.56
2018-10-07T17:12:26.046Z,98176.70
2018-10-07T17:14:56.463Z,98188.16
2018-10-07T17:17:26.800Z,98189.19
2018-10-07T17:19:57.255Z,98192.95
2018-10-07T17:22:27.655Z,98200.56
2018-10-07T17:24:58.340Z,98207.25
2018-10-07T17:27:28.730Z,98211.88
2018-10-07T17:29:59.066Z,98213.83
2018-10-07T17:32:29.352Z,98215.65
2018-10-07T17:34:59.992Z,98223.61
2018-10-07T17:37:30.411Z,98223.86
2018-10-07T17:40:00.827Z,98234.32
2018-10-07T17:42:32.053Z,98236.34
2018-10-07T17:45:02.757Z,98242.50
2018-10-07T17:47:33.070Z,98242.88
2018-10-07T17:50:03.551Z,98246.03
2018-10-07T17:52:34.582Z,98252.03
2018-10-07T17:55:04.868Z,98253.16
2018-10-07T17:57:36.606Z,98265.41
2018-10-07T18:00:06.992Z,98271.24
2018-10-07T18:02:37.366Z,98274.72
2018-10-07T18:05:07.853Z,98281.49
2018-10-07T18:07:38.113Z,98275.84
2018-10-07T18:10:08.397Z,98282.15
2018-10-07T18:12:39.288Z,98284.50
2018-10-07T18:15:09.823Z,98287.82
2018-10-07T18:17:40.156Z,98288.09
2018-10-07T18:20:10.507Z,98292.73
2018-10-07T18:22:40.870Z,98293.86
2018-10-07T18:25:11.232Z,98299.42
2018-10-07T18:27:41.675Z,98306.66
2018-10-07T18:30:12.410Z,98304.50
2018-10-07T18:32:42.840Z,98313.51
2018-10-07T18:35:13.192Z,98307.22
2018-10-07T18:37:43.500Z,98318.69
2018-10-07T18:40:14.258Z,98323.03
2018-10-07T18:42:44.574Z,98327.45
2018-10-07T18:45:15.093Z,98335.34
2018-10-07T18:47:45.538Z,98347.81
2018-10-07T18:50:15.869Z,98345.19
2018-10-07T18:52:46.315Z,98350.66
2018-10-07T18:55:16.679Z,98350.83
2018-10-07T18:57:46.994Z,98358.72
2018-10-07T19:00:17.425Z,98361.05
2018-10-07T19:02:47.952Z,98361.64
2018-10-07T19:05:18.214Z,98367.36
2018-10-07T19:07:48.515Z,98374.31
2018-10-07T19:10:18.912Z,98369.23
2018-10-07T19:12:49.191Z,98370.72
2018-10-07T19:15:19.601Z,98374.02
2018-10-07T19:17:49.944Z,98369.14
2018-10-07T19:20:20.235Z,98375.03
2018-10-07T19:22:52.487Z,98379.14
2018-10-07T19:25:22.863Z,98382.44
2018-10-07T19:27:53.125Z,98385.45
2018-10-07T19:30:23.351Z,98385.45
2018-10-07T19:32:53.573Z,98391.73
2018-10-07T19:35:23.807Z,98392.09
2018-10-07T19:37:54.057Z,98403.70
2018-10-07T19:40:24.315Z,98404.06
2018-10-07T19:42:54.605Z,98406.86
2018-10-07T19:45:24.967Z,98420.11
2018-10-07T19:47:55.180Z,98426.02
2018-10-07T19:50:25.526Z,98420.97
2018-10-07T19:52:55.803Z,98424.98
2018-10-07T19:55:26.068Z,98432.87
2018-10-07T19:57:56.361Z,98427.70
2018-10-07T20:00:26.674Z,98435.58
2018-10-07T20:02:57.059Z,98438.97
2018-10-07T20:05:27.316Z,98430.23
2018-10-07T20:07:57.690Z,98433.52
2018-10-07T20:10:28.023Z,98439.16
2018-10-07T20:12:58.342Z,98446.11
2018-10-07T20:15:28.774Z,98446.95
2018-10-07T20:17:58.976Z,98455.06
2018-10-07T20:20:29.487Z,98449.22
2018-10-07T20:22:59.690Z,98443.70
2018-10-07T20:25:29.916Z,98442.27
2018-10-07T20:28:00.149Z,98441.72
2018-10-07T20:30:30.635Z,98441.42
2018-10-07T20:33:00.896Z,98449.28
2018-10-07T20:35:31.180Z,98449.94
2018-10-07T20:38:01.482Z,98450.89
2018-10-07T20:40:31.852Z,98450.46
2018-10-07T20:43:02.157Z,98450.05
2018-10-07T20:45:32.464Z,98451.17
2018-10-07T20:48:02.796Z,98451.41
2018-10-07T20:50:33.102Z,98450.95
2018-10-07T20:53:03.553Z,98450.18
2018-10-07T20:55:33.774Z,98454.12
2018-10-07T20:58:04.406Z,98451.57
2018-10-07T21:00:34.843Z,98457.67
2018-10-07T21:03:05.133Z,98450.84
2018-10-07T21:05:35.490Z,98446.86
2018-10-07T21:08:05.964Z,98434.24
2018-10-07T21:10:37.067Z,98438.84
2018-10-07T21:13:10.320Z,98445.59
2018-10-07T21:15:40.650Z,98437.06
2018-10-07T21:18:11.010Z,98438.48
2018-10-07T21:20:41.340Z,98435.74
2018-10-07T21:23:11.565Z,98441.55
2018-10-07T21:25:41.950Z,98446.29
2018-10-07T21:28:12.234Z,98440.98
2018-10-07T21:30:42.448Z,98433.14
2018-10-07T21:33:12.813Z,98432.34
2018-10-07T21:35:43.059Z,98432.86
2018-10-07T21:38:13.616Z,98435.48
2018-10-07T21:40:43.946Z,98438.79
2018-10-07T21:43:14.157Z,98437.41
2018-10-07T21:45:46.249Z,98446.52
2018-10-07T21:48:16.546Z,98446.44
2018-10-07T21:50:46.990Z,98447.36
2018-10-07T21:53:17.301Z,98454.37
2018-10-07T21:55:47.605Z,98452.14
2018-10-07T21:58:17.898Z,98457.31
2018-10-07T22:00:48.238Z,98453.67
2018-10-07T22:03:18.388Z,98457.23
2018-10-07T22:05:48.718Z,98459.22
2018-10-07T22:08:18.945Z,98462.37
2018-10-07T22:10:49.179Z,98447.89
2018-10-07T22:13:19.387Z,98457.97
2018-10-07T22:15:49.653Z,98457.14
2018-10-07T22:18:20.056Z,98460.13
2018-10-07T22:20:50.369Z,98457.85
2018-10-07T22:23:20.665Z,98458.22
2018-10-07T22:25:51.051Z,98458.13
2018-10-07T22:28:21.351Z,98455.95
2018-10-07T22:30:53.471Z,98461.48
2018-10-07T22:33:23.947Z,98469.98
2018-10-07T22:35:55.093Z,98471.32
2018-10-07T22:38:25.347Z,98475.47
2018-10-07T22:40:55.643Z,98467.81
2018-10-07T22:43:25.901Z,98464.06
2018-10-07T22:45:56.188Z,98460.26
2018-10-07T22:48:26.483Z,98465.23
2018-10-07T22:50:56.739Z,98466.42
2018-10-07T22:53:26.991Z,98468.80
2018-10-07T22:55:57.323Z,98464.48
2018-10-07T22:58:27.588Z,98468.30
2018-10-07T23:00:57.849Z,98463.66
2018-10-07T23:03:28.199Z,98469.34
2018-10-07T23:05:58.524Z,98463.14
2018-10-07T23:08:28.738Z,98463.76
2018-10-07T23:10:59.255Z,98471.84
2018-10-07T23:13:29.861Z,98471.27
2018-10-07T23:16:00.350Z,98468.93
2018-10-07T23:18:30.700Z,98473.19
2018-10-07T23:21:01.107Z,98471.15
2018-10-07T23:23:31.367Z,98470.45
2018-10-07T23:26:01.659Z,98473.24
2018-10-07T23:28:31.886Z,98471.69
2018-10-07T23:31:02.139Z,98469.59
2018-10-07T23:33:32.382Z,98469.84
2018-10-07T23:36:02.729Z,98471.60
2018-10-07T23:38:32.981Z,98468.28
2018-10-07T23:41:03.325Z,98468.62
2018-10-07T23:43:33.607Z,98468.48
2018-10-07T23:46:03.889Z,98468.53
2018-10-07T23:48:34.131Z,98474.53
2018-10-07T23:51:04.438Z,98473.45
2018-10-07T23:53:34.750Z,98477.17
2018-10-07T23:56:05.617Z,98485.91
2018-10-07T23:58:35.945Z,98488.97
